createdAt,value
2023-02-14T00:01:16.119Z,103574.56
2023-02-14T00:03:49.617Z,103574.53
2023-02-14T00:06:20.054Z,103578.84
2023-02-14T00:08:52.417Z,103574.84
2023-02-14T00:11:22.634Z,103573.94
2023-02-14T00:14:04.621Z,103581.31
2023-02-14T00:16:34.463Z,103580.66
2023-02-14T00:19:06.854Z,103573.94
2023-02-14T00:21:39.771Z,103573.63
2023-02-14T00:24:12.091Z,103573.31
2023-02-14T00:26:42.252Z,103573.91
2023-02-14T00:29:14.196Z,103571.00
2023-02-14T00:31:44.389Z,103558.56
2023-02-14T00:34:18.114Z,103559.78
2023-02-14T00:36:48.601Z,103555.03
2023-02-14T00:39:19.081Z,103554.72
2023-02-14T00:41:49.309Z,103554.25
2023-02-14T00:44:19.447Z,103552.25
2023-02-14T00:46:49.256Z,103543.38
2023-02-14T00:49:21.657Z,103537.09
2023-02-14T00:51:51.426Z,103541.38
2023-02-14T00:54:21.214Z,103544.59
2023-02-14T00:56:50.980Z,103545.94
2023-02-14T00:59:20.980Z,103544.72
2023-02-14T01:01:50.734Z,103549.47
2023-02-14T01:04:23.115Z,103545.59
2023-02-14T01:06:52.853Z,103541.00
2023-02-14T01:09:22.621Z,103543.16
2023-02-14T01:11:52.387Z,103546.97
2023-02-14T01:14:22.184Z,103541.41
2023-02-14T01:16:52.040Z,103543.22
2023-02-14T01:19:24.508Z,103548.13
2023-02-14T01:21:54.289Z,103551.16
2023-02-14T01:24:25.263Z,103545.81
2023-02-14T01:26:55.052Z,103546.91
2023-02-14T01:29:24.823Z,103541.22
2023-02-14T01:31:54.620Z,103543.72
2023-02-14T01:34:26.991Z,103536.69
2023-02-14T01:36:56.986Z,103535.47
2023-02-14T01:39:26.759Z,103536.88
2023-02-14T01:41:56.783Z,103534.56
2023-02-14T01:45:09.430Z,103526.31
2023-02-14T01:47:43.613Z,103530.19
2023-02-14T01:50:20.184Z,103528.63
2023-02-14T01:52:53.876Z,103519.75
2023-02-14T01:55:26.623Z,103517.16
2023-02-14T01:58:00.452Z,103521.59
2023-02-14T02:00:42.968Z,103517.59
2023-02-14T02:03:16.379Z,103507.34
2023-02-14T02:05:54.001Z,103515.31
2023-02-14T02:08:24.239Z,103515.31
2023-02-14T02:10:54.001Z,103510.72
2023-02-14T02:13:25.680Z,103509.66
2023-02-14T02:16:20.645Z,103500.44
2023-02-14T02:19:05.547Z,103501.97
2023-02-14T02:22:13.795Z,103502.88
2023-02-14T02:24:51.447Z,103516.94
2023-02-14T02:27:29.193Z,103508.97
2023-02-14T02:30:40.249Z,103507.88
2023-02-14T02:33:46.556Z,103504.13
2023-02-14T02:36:39.289Z,103503.00
2023-02-14T02:39:19.827Z,103504.31
2023-02-14T02:42:08.982Z,103502.91
2023-02-14T02:44:47.711Z,103494.03
2023-02-14T02:47:25.393Z,103494.81
2023-02-14T02:50:15.999Z,103490.38
2023-02-14T02:53:07.117Z,103488.50
2023-02-14T02:55:59.266Z,103494.47
2023-02-14T02:58:33.482Z,103484.22
2023-02-14T03:01:06.489Z,103488.81
2023-02-14T03:03:50.550Z,103482.09
2023-02-14T03:06:20.305Z,103481.69
2023-02-14T03:08:52.693Z,103483.81
2023-02-14T03:11:22.571Z,103479.69
2023-02-14T03:14:02.692Z,103468.84
2023-02-14T03:17:00.371Z,103475.28
2023-02-14T03:20:02.558Z,103475.47
2023-02-14T03:22:45.519Z,103473.63
2023-02-14T03:25:34.722Z,103477.47
2023-02-14T03:28:15.043Z,103470.56
2023-02-14T03:30:51.859Z,103472.44
2023-02-14T03:33:25.958Z,103471.66
2023-02-14T03:36:02.234Z,103478.69
2023-02-14T03:38:35.966Z,103476.06
2023-02-14T03:41:14.176Z,103473.47
2023-02-14T03:43:48.035Z,103468.88
2023-02-14T03:46:23.300Z,103468.44
2023-02-14T03:48:55.729Z,103467.34
2023-02-14T03:51:27.172Z,103461.66
2023-02-14T03:54:00.943Z,103468.19
2023-02-14T03:56:38.502Z,103459.94
2023-02-14T03:59:11.828Z,103468.19
2023-02-14T04:01:49.344Z,103463.56
2023-02-14T04:04:23.150Z,103462.06
2023-02-14T04:06:53.210Z,103454.41
2023-02-14T04:09:22.960Z,103455.66
2023-02-14T04:11:55.359Z,103458.41
2023-02-14T04:14:29.510Z,103460.25
2023-02-14T04:17:11.766Z,103466.38
2023-02-14T04:19:41.524Z,103459.47
2023-02-14T04:22:11.314Z,103462.09
2023-02-14T04:24:41.213Z,103460.09
2023-02-14T04:27:13.646Z,103464.53
2023-02-14T04:29:46.053Z,103456.56
2023-02-14T04:32:18.281Z,103458.41
2023-02-14T04:34:48.792Z,103455.19
2023-02-14T04:37:21.494Z,103457.06
2023-02-14T04:39:51.271Z,103459.97
2023-02-14T04:42:23.733Z,103461.81
2023-02-14T04:44:53.505Z,103450.63
2023-02-14T04:47:23.507Z,103453.41
2023-02-14T04:49:53.479Z,103452.63
2023-02-14T04:52:23.341Z,103451.88
2023-02-14T04:54:53.158Z,103452.63
2023-02-14T04:57:25.601Z,103445.91
2023-02-14T04:59:55.354Z,103436.09
2023-02-14T05:02:25.177Z,103435.19
2023-02-14T05:04:55.142Z,103441.13
2023-02-14T05:07:24.907Z,103440.06
2023-02-14T05:09:54.696Z,103438.41
2023-02-14T05:12:27.063Z,103435.78
2023-02-14T05:14:57.771Z,103435.78
2023-02-14T05:17:27.617Z,103430.41
2023-02-14T05:19:57.366Z,103430.25
2023-02-14T05:22:27.140Z,103427.34
2023-02-14T05:24:56.887Z,103426.13
2023-02-14T05:27:29.315Z,103419.50
2023-02-14T05:29:59.142Z,103422.25
2023-02-14T05:32:28.891Z,103421.59
2023-02-14T05:35:00.987Z,103419.56
2023-02-14T05:37:30.896Z,103413.47
2023-02-14T05:40:00.658Z,103420.66
2023-02-14T05:42:33.134Z,103418.25
2023-02-14T05:45:02.923Z,103407.84
2023-02-14T05:47:32.667Z,103409.66
2023-02-14T05:50:02.435Z,103415.03
2023-02-14T05:52:32.399Z,103413.34
2023-02-14T05:55:02.234Z,103422.06
2023-02-14T05:57:34.640Z,103415.03
2023-02-14T06:00:05.632Z,103416.72
2023-02-14T06:02:35.664Z,103416.56
2023-02-14T06:05:05.433Z,103418.25
2023-02-14T06:07:35.204Z,103418.84
2023-02-14T06:10:04.976Z,103416.66
2023-02-14T06:12:37.437Z,103425.25
2023-02-14T06:15:07.964Z,103408.72
2023-02-14T06:17:37.807Z,103416.53
2023-02-14T06:20:09.814Z,103419.13
2023-02-14T06:22:40.119Z,103418.19
2023-02-14T06:25:10.319Z,103418.19
2023-02-14T06:27:42.779Z,103418.19
2023-02-14T06:30:14.881Z,103420.78
2023-02-14T06:32:44.750Z,103418.03
2023-02-14T06:35:14.602Z,103414.50
2023-02-14T06:37:45.450Z,103414.50
2023-02-14T06:40:17.080Z,103423.97
2023-02-14T06:42:49.506Z,103410.84
2023-02-14T06:45:19.359Z,103410.84
2023-02-14T06:47:49.219Z,103423.06
2023-02-14T06:50:19.207Z,103418.66
2023-02-14T06:52:48.994Z,103418.47
2023-02-14T06:55:18.993Z,103424.59
2023-02-14T06:57:51.362Z,103427.97
2023-02-14T07:00:22.846Z,103428.09
2023-02-14T07:02:52.796Z,103422.75
2023-02-14T07:05:22.896Z,103430.56
2023-02-14T07:07:52.863Z,103430.56
2023-02-14T07:10:22.803Z,103430.38
2023-02-14T07:12:56.180Z,103431.28
2023-02-14T07:15:26.310Z,103425.19
2023-02-14T07:17:56.558Z,103425.97
2023-02-14T07:20:26.385Z,103417.25
2023-02-14T07:22:56.611Z,103424.28
2023-02-14T07:25:28.411Z,103424.09
2023-02-14T07:28:00.837Z,103421.66
2023-02-14T07:30:30.813Z,103419.84
2023-02-14T07:33:01.007Z,103420.91
2023-02-14T07:35:30.815Z,103417.56
2023-02-14T07:38:00.578Z,103414.94
2023-02-14T07:40:30.398Z,103418.47
2023-02-14T07:43:02.976Z,103417.69
2023-02-14T07:45:32.812Z,103418.66
2023-02-14T07:48:07.834Z,103416.78
2023-02-14T07:50:37.816Z,103412.34
2023-02-14T07:53:08.677Z,103414.78
2023-02-14T07:55:39.734Z,103418.28
2023-02-14T07:58:12.139Z,103420.91
2023-02-14T08:00:41.913Z,103420.16
2023-02-14T08:03:11.748Z,103423.06
2023-02-14T08:05:41.857Z,103429.53
2023-02-14T08:08:11.647Z,103427.06
2023-02-14T08:10:41.434Z,103426.47
2023-02-14T08:13:13.832Z,103420.84
2023-02-14T08:15:58.484Z,103424.66
2023-02-14T08:18:28.886Z,103429.59
2023-02-14T08:20:59.133Z,103421.94
2023-02-14T08:23:29.261Z,103419.22
2023-02-14T08:25:59.264Z,103416.16
2023-02-14T08:28:33.375Z,103420.19
2023-02-14T08:31:04.138Z,103417.88
2023-02-14T08:33:34.156Z,103409.59
2023-02-14T08:36:04.065Z,103416.97
2023-02-14T08:38:33.859Z,103416.53
2023-02-14T08:41:08.002Z,103414.84
2023-02-14T08:43:41.048Z,103415.34
2023-02-14T08:46:11.227Z,103417.16
2023-02-14T08:48:41.351Z,103421.16
2023-02-14T08:51:12.644Z,103426.22
2023-02-14T08:53:42.862Z,103416.28
2023-02-14T08:56:14.536Z,103419.34
2023-02-14T08:58:47.052Z,103425.16
2023-02-14T09:01:19.727Z,103421.81
2023-02-14T09:03:49.888Z,103409.72
2023-02-14T09:06:20.282Z,103414.13
2023-02-14T09:08:50.077Z,103413.38
2023-02-14T09:11:22.451Z,103415.19
2023-02-14T09:13:56.067Z,103409.22
2023-02-14T09:16:27.140Z,103405.06
2023-02-14T09:18:57.801Z,103405.19
2023-02-14T09:21:30.712Z,103402.84
2023-02-14T09:24:00.936Z,103403.25
2023-02-14T09:26:31.162Z,103406.31
2023-02-14T09:29:03.769Z,103398.72
2023-02-14T09:31:33.682Z,103400.78
2023-02-14T09:34:15.980Z,103396.63
2023-02-14T09:36:45.776Z,103402.69
2023-02-14T09:39:15.556Z,103404.47
2023-02-14T09:42:20.775Z,103402.88
2023-02-14T09:44:57.075Z,103404.22
2023-02-14T09:47:37.056Z,103404.03
2023-02-14T09:50:08.922Z,103399.69
2023-02-14T09:52:38.813Z,103405.88
2023-02-14T09:55:17.576Z,103404.13
2023-02-14T09:58:01.357Z,103408.34
2023-02-14T10:00:39.541Z,103400.16
2023-02-14T10:03:32.577Z,103404.09
2023-02-14T10:06:07.848Z,103391.59
2023-02-14T10:08:52.180Z,103399.34
2023-02-14T10:11:25.718Z,103395.44
2023-02-14T10:14:00.388Z,103388.28
2023-02-14T10:16:36.779Z,103385.44
2023-02-14T10:19:10.586Z,103378.00
2023-02-14T10:21:46.442Z,103377.63
2023-02-14T10:24:22.332Z,103377.38
2023-02-14T10:26:53.430Z,103373.47
2023-02-14T10:29:23.576Z,103372.19
2023-02-14T10:32:00.727Z,103370.88
2023-02-14T10:34:38.426Z,103368.69
2023-02-14T10:37:32.135Z,103367.38
2023-02-14T10:40:20.829Z,103366.97
2023-02-14T10:42:59.114Z,103376.16
2023-02-14T10:45:37.960Z,103367.78
2023-02-14T10:48:19.943Z,103364.63
2023-02-14T10:50:55.576Z,103353.00
2023-02-14T10:53:36.625Z,103353.41
2023-02-14T10:56:11.548Z,103352.34
2023-02-14T10:58:43.010Z,103345.78
2023-02-14T11:01:15.606Z,103342.66
2023-02-14T11:03:58.647Z,103339.50
2023-02-14T11:06:28.487Z,103340.69
2023-02-14T11:08:58.312Z,103347.09
2023-02-14T11:11:33.191Z,103341.47
2023-02-14T11:14:03.094Z,103339.22
2023-02-14T11:16:34.533Z,103343.13
2023-02-14T11:19:23.592Z,103339.34
2023-02-14T11:21:54.897Z,103338.81
2023-02-14T11:24:30.516Z,103339.47
2023-02-14T11:27:02.824Z,103345.19
2023-02-14T11:29:36.118Z,103334.28
2023-02-14T11:32:13.451Z,103337.47
2023-02-14T11:34:51.217Z,103331.00
2023-02-14T11:37:30.279Z,103334.16
2023-02-14T11:40:02.545Z,103326.75
2023-02-14T11:42:38.766Z,103320.19
2023-02-14T11:45:09.843Z,103314.63
2023-02-14T11:47:43.002Z,103305.66
2023-02-14T11:50:26.165Z,103302.75
2023-02-14T11:52:59.238Z,103291.84
2023-02-14T11:55:31.408Z,103295.84
2023-02-14T11:58:01.933Z,103281.63
2023-02-14T12:00:32.482Z,103283.84
2023-02-14T12:03:05.668Z,103279.94
2023-02-14T12:05:48.765Z,103274.38
2023-02-14T12:08:26.608Z,103278.28
2023-02-14T12:11:05.543Z,103277.97
2023-02-14T12:13:36.487Z,103275.81
2023-02-14T12:16:06.464Z,103268.41
2023-02-14T12:18:46.560Z,103278.59
2023-02-14T12:21:45.124Z,103276.56
2023-02-14T12:24:21.534Z,103274.28
2023-02-14T12:26:58.280Z,103271.06
2023-02-14T12:29:35.642Z,103264.44
2023-02-14T12:32:16.056Z,103255.31
2023-02-14T12:34:45.890Z,103256.44
2023-02-14T12:37:26.559Z,103254.28
2023-02-14T12:40:14.360Z,103261.72
2023-02-14T12:42:57.429Z,103254.19
2023-02-14T12:45:33.466Z,103248.44
2023-02-14T12:48:16.609Z,103249.84
2023-02-14T12:50:55.505Z,103236.22
2023-02-14T12:53:45.636Z,103233.25
2023-02-14T12:56:29.346Z,103239.88
2023-02-14T12:59:10.850Z,103240.19
2023-02-14T13:02:01.508Z,103226.59
2023-02-14T13:04:51.244Z,103223.38
2023-02-14T13:07:38.374Z,103225.53
2023-02-14T13:10:18.344Z,103215.31
2023-02-14T13:12:55.557Z,103207.63
2023-02-14T13:15:37.458Z,103210.59
2023-02-14T13:18:14.022Z,103206.50
2023-02-14T13:20:51.724Z,103210.25
2023-02-14T13:23:27.682Z,103203.50
2023-02-14T13:26:06.789Z,103200.25
2023-02-14T13:28:38.969Z,103195.19
2023-02-14T13:31:09.407Z,103187.63
2023-02-14T13:33:44.010Z,103186.91
2023-02-14T13:36:16.332Z,103181.84
2023-02-14T13:38:50.244Z,103181.28
2023-02-14T13:41:24.407Z,103183.22
2023-02-14T13:43:56.484Z,103174.41
2023-02-14T13:46:52.200Z,103163.25
2023-02-14T13:49:33.301Z,103169.53
2023-02-14T13:52:05.350Z,103170.56
2023-02-14T13:54:39.026Z,103168.13
2023-02-14T13:57:31.810Z,103168.38
2023-02-14T14:00:40.540Z,103152.75
2023-02-14T14:03:15.472Z,103163.50
2023-02-14T14:06:07.588Z,103157.66
2023-02-14T14:08:54.462Z,103153.16
2023-02-14T14:12:02.526Z,103153.28
2023-02-14T14:14:41.331Z,103152.56
2023-02-14T14:17:26.393Z,103150.03
2023-02-14T14:19:58.099Z,103145.47
2023-02-14T14:22:29.279Z,103155.22
2023-02-14T14:25:02.388Z,103150.72
2023-02-14T14:27:37.789Z,103158.75
2023-02-14T14:30:21.151Z,103154.50
2023-02-14T14:32:51.901Z,103145.56
2023-02-14T14:35:23.954Z,103146.47
2023-02-14T14:37:55.796Z,103153.59
2023-02-14T14:40:28.929Z,103152.78
2023-02-14T14:43:03.456Z,103149.31
2023-02-14T14:45:36.275Z,103138.06
2023-02-14T14:48:13.803Z,103141.66
2023-02-14T14:50:50.445Z,103132.00
2023-02-14T14:53:25.667Z,103130.28
2023-02-14T14:55:56.075Z,103132.09
2023-02-14T14:58:42.040Z,103127.84
2023-02-14T15:01:32.664Z,103123.41
2023-02-14T15:04:13.796Z,103126.94
2023-02-14T15:06:44.846Z,103127.06
2023-02-14T15:09:16.901Z,103119.16
2023-02-14T15:12:00.963Z,103113.03
2023-02-14T15:14:33.344Z,103116.59
2023-02-14T15:17:08.170Z,103115.78
2023-02-14T15:19:41.894Z,103113.97
2023-02-14T15:22:22.784Z,103114.06
2023-02-14T15:24:52.843Z,103117.53
2023-02-14T15:27:24.695Z,103104.44
2023-02-14T15:30:00.178Z,103104.44
2023-02-14T15:32:35.548Z,103108.81
2023-02-14T15:35:07.944Z,103108.69
2023-02-14T15:37:38.136Z,103107.00
2023-02-14T15:40:10.545Z,103101.59
2023-02-14T15:42:46.468Z,103098.84
2023-02-14T15:45:26.213Z,103096.22
2023-02-14T15:48:08.670Z,103099.69
2023-02-14T15:50:54.951Z,103094.28
2023-02-14T15:53:42.109Z,103100.47
2023-02-14T15:56:26.808Z,103100.47
2023-02-14T15:59:02.850Z,103086.31
2023-02-14T16:01:34.233Z,103096.72
2023-02-14T16:04:09.909Z,103096.63
2023-02-14T16:06:44.754Z,103096.41
2023-02-14T16:09:28.990Z,103098.84
2023-02-14T16:11:59.375Z,103106.38
2023-02-14T16:14:36.870Z,103098.84
2023-02-14T16:17:09.267Z,103096.63
2023-02-14T16:19:48.279Z,103096.19
2023-02-14T16:22:32.204Z,103094.16
2023-02-14T16:25:02.028Z,103094.56
2023-02-14T16:27:31.970Z,103101.44
2023-02-14T16:30:01.799Z,103098.59
2023-02-14T16:32:31.943Z,103104.56
2023-02-14T16:35:04.503Z,103092.09
2023-02-14T16:37:36.162Z,103092.47
2023-02-14T16:40:06.674Z,103095.50
2023-02-14T16:42:41.764Z,103098.75
2023-02-14T16:45:18.403Z,103096.47
2023-02-14T16:47:49.571Z,103104.97
2023-02-14T16:50:26.525Z,103106.56
2023-02-14T16:52:59.133Z,103095.63
2023-02-14T16:55:31.573Z,103095.28
2023-02-14T16:58:03.920Z,103098.41
2023-02-14T17:00:33.971Z,103099.81
2023-02-14T17:03:11.159Z,103101.03
2023-02-14T17:05:44.289Z,103096.38
2023-02-14T17:08:16.416Z,103099.72
2023-02-14T17:10:48.686Z,103104.72
2023-02-14T17:13:22.215Z,103100.06
2023-02-14T17:15:53.286Z,103107.72
2023-02-14T17:18:24.581Z,103111.63
2023-02-14T17:20:57.520Z,103107.63
2023-02-14T17:23:27.940Z,103111.44
2023-02-14T17:25:57.800Z,103114.28
2023-02-14T17:28:27.847Z,103113.84
2023-02-14T17:31:00.460Z,103115.78
2023-02-14T17:33:30.600Z,103112.72
2023-02-14T17:36:11.936Z,103114.09
2023-02-14T17:38:43.570Z,103119.81
2023-02-14T17:41:15.306Z,103108.84
2023-02-14T17:43:45.557Z,103104.94
2023-02-14T17:46:16.263Z,103107.22
2023-02-14T17:48:46.397Z,103109.53
2023-02-14T17:51:21.095Z,103110.09
2023-02-14T17:53:51.302Z,103105.28
2023-02-14T17:59:09.572Z,103106.31
2023-02-14T18:01:39.529Z,103109.47
2023-02-14T18:04:10.394Z,103110.06
2023-02-14T18:06:43.295Z,103110.84
2023-02-14T18:09:14.193Z,103117.69
2023-02-14T18:11:44.626Z,103108.00
2023-02-14T18:14:14.380Z,103114.03
2023-02-14T18:16:44.384Z,103108.44
2023-02-14T18:19:16.066Z,103103.88
2023-02-14T18:21:48.615Z,103110.69
2023-02-14T18:24:18.447Z,103108.84
2023-02-14T18:26:48.686Z,103102.47
2023-02-14T18:29:18.446Z,103104.88
2023-02-14T18:31:48.293Z,103108.16
2023-02-14T18:34:18.098Z,103100.06
2023-02-14T18:36:50.438Z,103095.22
2023-02-14T18:39:20.232Z,103087.81
2023-02-14T18:41:53.274Z,103089.97
2023-02-14T18:44:23.609Z,103087.88
2023-02-14T18:46:53.361Z,103084.91
2023-02-14T18:49:23.370Z,103080.06
2023-02-14T18:52:00.682Z,103077.97
2023-02-14T18:54:30.528Z,103083.91
2023-02-14T18:57:00.296Z,103086.41
2023-02-14T18:59:30.180Z,103075.69
2023-02-14T19:02:00.049Z,103073.75
2023-02-14T19:04:29.871Z,103070.75
2023-02-14T19:07:04.560Z,103071.31
2023-02-14T19:09:39.120Z,103076.97
2023-02-14T19:12:09.836Z,103068.50
2023-02-14T19:14:40.902Z,103066.41
2023-02-14T19:17:12.060Z,103073.00
2023-02-14T19:19:42.452Z,103064.75
2023-02-14T19:22:14.841Z,103069.78
2023-02-14T19:24:44.952Z,103068.47
2023-02-14T19:27:15.115Z,103070.47
2023-02-14T19:29:45.072Z,103072.63
2023-02-14T19:32:14.962Z,103070.28
2023-02-14T19:34:44.765Z,103070.72
2023-02-14T19:37:17.120Z,103070.34
2023-02-14T19:39:46.938Z,103078.72
2023-02-14T19:42:16.826Z,103063.53
2023-02-14T19:44:47.491Z,103066.69
2023-02-14T19:47:30.934Z,103064.59
2023-02-14T19:50:03.735Z,103067.78
2023-02-14T19:52:36.228Z,103068.44
2023-02-14T19:55:07.624Z,103069.88
2023-02-14T19:57:37.397Z,103059.91
2023-02-14T20:00:11.394Z,103061.38
2023-02-14T20:02:45.902Z,103065.56
2023-02-14T20:05:15.763Z,103063.38
2023-02-14T20:07:49.316Z,103058.66
2023-02-14T20:10:19.698Z,103058.41
2023-02-14T20:12:49.744Z,103062.47
2023-02-14T20:15:19.573Z,103050.81
2023-02-14T20:17:49.451Z,103050.56
2023-02-14T20:20:19.410Z,103046.00
2023-02-14T20:22:51.863Z,103046.66
2023-02-14T20:25:22.361Z,103043.78
2023-02-14T20:27:56.502Z,103032.28
2023-02-14T20:30:33.789Z,103029.28
2023-02-14T20:33:11.375Z,103032.53
2023-02-14T20:35:45.187Z,103030.72
2023-02-14T20:38:19.682Z,103017.50
2023-02-14T20:40:49.590Z,103023.53
2023-02-14T20:43:19.458Z,103019.72
2023-02-14T20:45:49.634Z,103021.31
2023-02-14T20:48:19.947Z,103012.44
2023-02-14T20:50:50.041Z,103019.22
2023-02-14T20:53:27.789Z,103017.53
2023-02-14T20:55:58.079Z,103006.81
2023-02-14T20:58:29.579Z,103017.13
2023-02-14T21:01:00.397Z,103011.78
2023-02-14T21:03:32.501Z,103013.19
2023-02-14T21:06:05.746Z,103011.25
2023-02-14T21:08:39.407Z,103004.72
2023-02-14T21:11:10.161Z,103008.63
2023-02-14T21:13:40.289Z,103003.00
2023-02-14T21:16:15.125Z,103004.31
2023-02-14T21:18:59.429Z,103003.94
2023-02-14T21:21:40.922Z,103003.56
2023-02-14T21:24:53.214Z,103008.38
2023-02-14T21:27:29.056Z,103005.22
2023-02-14T21:30:00.534Z,103003.91
2023-02-14T21:32:33.494Z,103002.72
2023-02-14T21:35:03.749Z,103002.47
2023-02-14T21:37:35.475Z,102996.94
2023-02-14T21:40:06.450Z,102993.28
2023-02-14T21:42:39.077Z,102998.38
2023-02-14T21:45:22.129Z,102990.28
2023-02-14T21:48:06.906Z,102992.63
2023-02-14T21:50:36.756Z,102988.06
2023-02-14T21:53:10.172Z,102990.38
2023-02-14T21:55:43.049Z,102984.88
2023-02-14T21:58:15.559Z,102983.81
2023-02-14T22:00:51.131Z,102995.06
2023-02-14T22:03:23.946Z,102990.50
2023-02-14T22:05:55.187Z,102986.72
2023-02-14T22:08:25.059Z,102990.88
2023-02-14T22:10:55.202Z,102984.44
2023-02-14T22:13:29.869Z,102986.78
2023-02-14T22:16:04.682Z,102988.22
2023-02-14T22:18:37.738Z,102986.13
2023-02-14T22:21:10.049Z,102978.78
2023-02-14T22:23:40.825Z,102971.47
2023-02-14T22:26:12.775Z,102970.44
2023-02-14T22:28:47.171Z,102970.16
2023-02-14T22:31:19.188Z,102971.56
2023-02-14T22:33:50.179Z,102977.41
2023-02-14T22:36:22.385Z,102968.56
2023-02-14T22:38:54.887Z,102971.66
2023-02-14T22:41:26.956Z,102974.78
2023-02-14T22:44:02.012Z,102965.88
2023-02-14T22:46:32.112Z,102971.63
2023-02-14T22:49:02.223Z,102959.06
2023-02-14T22:51:34.870Z,102960.63
2023-02-14T22:54:07.417Z,102962.06
2023-02-14T22:56:40.789Z,102968.06
2023-02-14T22:59:18.286Z,102956.41
2023-02-14T23:01:49.544Z,102950.94
2023-02-14T23:04:25.031Z,102953.38
2023-02-14T23:06:56.532Z,102950.66
2023-02-14T23:09:28.437Z,102954.66
2023-02-14T23:12:00.725Z,102959.78
2023-02-14T23:14:45.597Z,102949.81
2023-02-14T23:17:35.794Z,102947.69
2023-02-14T23:20:18.326Z,102952.78
2023-02-14T23:22:48.967Z,102951.59
2023-02-14T23:25:18.998Z,102954.06
2023-02-14T23:27:52.272Z,102951.03
2023-02-14T23:30:25.064Z,102955.97
2023-02-14T23:32:55.738Z,102957.25
2023-02-14T23:35:25.713Z,102951.72
2023-02-14T23:37:55.583Z,102951.47
2023-02-14T23:40:25.478Z,102954.56
2023-02-14T23:42:56.653Z,102949.06
2023-02-14T23:45:45.049Z,102950.63
2023-02-14T23:48:14.947Z,102943.28
2023-02-14T23:50:45.253Z,102949.13
2023-02-14T23:53:18.120Z,102939.19
2023-02-14T23:55:53.964Z,102942.44
2023-02-14T23:58:23.840Z,102934.22
